Tuttle, Idaho
Current Conditions -  °F | °C
As of 2:53 AM on Sunday 26 Oct 2014 (Local Time) from KJER Reporting Station
Clear Clear  
Wind Chill: 51°   Ceiling: Unl
Heat Index: 51°   Visibility: 10mi
Dew Point: 25°   Wind: 9mph
Humidity: 36%   Direction: 220°SW
Pressure: 29.97"   Gusts: NA
Location:  43.0634°N, 114.867°W
Report Text: KJER 260853Z AUTO 22008KT 10SM CLR 11/M04 A2997 RMK AO2 SLP120 T01061039 53009
Loading
Personal Weather Stations






























Interactive Weather Map New forecast layout! Learn more

10-Day Weather Forecast

Advertisements
Track Severe Weather on mobile